Vb Andalucia — ECFI — position and weather

sailwx.info

Track history (hours):
 
Tides and Currents Weather Stations Pressure Air Temp Water Temp Dewpoint Dewpoint Depression Visibility Wind Speed Wind Dir Waves Ship Positions

Vb Andalucia

Last reported at 2016-Jul-29 15:32 UTC. Time now 2016-Jul-29 15:59 UTC.
Position N 36°09' W 005°25'.

Type: Tug. MMSI: 224117450.

Date/timePositionNaut miles runAvg speedWind from/ knotsBaromVisibWave heightAir tempDewpointWater temp
2016-Jul-29 15:32N 36°09' W 005°25'1 1.2
2016-Jul-29 14:29N 36°08' W 005°26'0 0.0
2016-Jul-29 13:15N 36°08' W 005°26'0 0.0
2016-Jul-29 12:25N 36°08' W 005°26'1 1.0
2016-Jul-29 11:28N 36°08' W 005°25'1 0.6
2016-Jul-29 10:32N 36°08' W 005°26'1 0.5
2016-Jul-29 09:14N 36°08' W 005°25'1 0.3
2016-Jul-29 05:33N 36°08' W 005°26'0 0.0
2016-Jul-29 04:29N 36°08' W 005°26'0 0.0
2016-Jul-29 03:33N 36°08' W 005°26'0 0.0
2016-Jul-29 02:33N 36°08' W 005°26'0 0.0
2016-Jul-29 01:33N 36°08' W 005°26'2 1.8
2016-Jul-29 00:30N 36°09' W 005°24'2 1.9
2016-Jul-28 23:32N 36°08' W 005°26'0 0.0
2016-Jul-28 22:33N 36°08' W 005°26'0 0.3
2016-Jul-28 21:31N 36°08' W 005°26'0 0.3
2016-Jul-28 20:25N 36°08' W 005°26'0 0.0
2016-Jul-28 19:33N 36°08' W 005°26'0 0.1
2016-Jul-28 17:31N 36°08' W 005°26'0 0.0
2016-Jul-28 10:07N 36°08' W 005°26'0 0.1
2016-Jul-28 05:25N 36°08' W 005°26'1 0.6
2016-Jul-28 04:33N 36°08' W 005°26'1 0.5
2016-Jul-28 03:29N 36°08' W 005°26'1 1.2
2016-Jul-28 02:33N 36°09' W 005°25'1 1.1
2016-Jul-28 01:33N 36°08' W 005°26'0 0.0
2016-Jul-28 00:33N 36°08' W 005°26'0 0.0
2016-Jul-27 23:32N 36°08' W 005°26'0 0.0
2016-Jul-27 22:33N 36°08' W 005°26'0 0.0
2016-Jul-27 20:16N 36°08' W 005°26'0 0.0
2016-Jul-27 19:33N 36°08' W 005°26'1 1.0
2016-Jul-27 18:34N 36°09' W 005°26'1 1.0
2016-Jul-27 17:33N 36°08' W 005°26'0 0.0
2016-Jul-27 16:34N 36°08' W 005°26'0 0.0
2016-Jul-27 15:20N 36°08' W 005°26'0 0.0
2016-Jul-27 14:14N 36°08' W 005°26'0 0.0
2016-Jul-27 13:27N 36°08' W 005°26'0 0.0
2016-Jul-27 12:33N 36°08' W 005°26'0 0.1
2016-Jul-27 11:23N 36°08' W 005°26'2 2.1
2016-Jul-27 10:33N 36°09' W 005°25'1 1.1
2016-Jul-27 09:33N 36°08' W 005°25'1 0.6
2016-Jul-27 07:33N 36°09' W 005°26'1 0.6
2016-Jul-27 06:29N 36°08' W 005°26'0 0.0
2016-Jul-27 05:33N 36°08' W 005°26'0 0.0
2016-Jul-27 04:33N 36°08' W 005°26'0 0.0
2016-Jul-27 03:32N 36°08' W 005°26'0 0.0
2016-Jul-27 02:33N 36°08' W 005°26'0 0.0
2016-Jul-27 01:33N 36°08' W 005°26'0 0.0
2016-Jul-27 00:30N 36°08' W 005°26'0 0.0
2016-Jul-26 23:33N 36°08' W 005°26'0 0.4
2016-Jul-26 22:33N 36°08' W 005°26'0 0.3
2016-Jul-26 21:03N 36°08' W 005°26'0 0.0
2016-Jul-26 20:33N 36°08' W 005°26'0 0.0
2016-Jul-26 19:27N 36°08' W 005°26'0 0.0
2016-Jul-26 18:32N 36°08' W 005°26'1 0.1
2016-Jul-26 11:33N 36°08' W 005°25'1 0.2
2016-Jul-26 05:33N 36°08' W 005°26'1 0.5
2016-Jul-26 04:33N 36°08' W 005°26'0 0.0
2016-Jul-26 03:33N 36°08' W 005°26'0 0.0
2016-Jul-26 02:33N 36°08' W 005°26'0 0.0
2016-Jul-26 00:26N 36°08' W 005°26'1 1.2
2016-Jul-25 23:33N 36°09' W 005°26'1 0.1
2016-Jul-25 18:31N 36°08' W 005°26'1 0.7
2016-Jul-25 17:29N 36°09' W 005°26'0 0.2
2016-Jul-25 15:09N 36°09' W 005°26'1 0.5
2016-Jul-25 13:31N 36°08' W 005°26'0 0.2
2016-Jul-25 12:29N 36°08' W 005°26'0 0.2
2016-Jul-25 11:33N 36°08' W 005°26'0 0.2
2016-Jul-25 10:30N 36°08' W 005°26'0 0.1
2016-Jul-25 07:29N 36°08' W 005°26'0 0.1
2016-Jul-25 06:04N 36°08' W 005°26'0 0.0
2016-Jul-25 04:32N 36°08' W 005°26'0 0.0
2016-Jul-25 03:33N 36°08' W 005°26'0 0.0
2016-Jul-25 02:33N 36°08' W 005°26'1 1.0
2016-Jul-25 01:33N 36°09' W 005°26'1 0.9
2016-Jul-25 00:33N 36°08' W 005°26'3 2.6
2016-Jul-24 23:33N 36°11' W 005°25'3 2.6
2016-Jul-24 22:33N 36°08' W 005°26'0 0.2
2016-Jul-24 21:33N 36°08' W 005°26'0 0.0
2016-Jul-24 20:18N 36°08' W 005°26'0 0.0
2016-Jul-24 19:33N 36°08' W 005°26'0 0.0
2016-Jul-24 18:33N 36°08' W 005°26'0 0.0
2016-Jul-24 17:33N 36°08' W 005°26'2 1.6
2016-Jul-24 16:27N 36°09' W 005°24'2 0.9
2016-Jul-24 14:30N 36°08' W 005°26'0 0.0
2016-Jul-24 13:33N 36°08' W 005°26'0 0.0
2016-Jul-24 12:32N 36°08' W 005°26'0 0.0
2016-Jul-24 08:25N 36°08' W 005°26'1 1.1
2016-Jul-24 07:33N 36°09' W 005°26'0 0.2
2016-Jul-24 06:33N 36°09' W 005°26'0 0.4
2016-Jul-24 05:33N 36°08' W 005°26'0 0.1
2016-Jul-24 04:33N 36°08' W 005°26'0 0.4
2016-Jul-24 03:18N 36°08' W 005°26'0 0.0
2016-Jul-24 02:25N 36°08' W 005°26'0 0.0
2016-Jul-24 01:33N 36°08' W 005°26'0 0.0
2016-Jul-23 23:26N 36°08' W 005°26'0 0.0
2016-Jul-23 22:33N 36°08' W 005°26'1 1.4
2016-Jul-23 21:33N 36°09' W 005°25'1 0.2
2016-Jul-23 16:08N 36°08' W 005°26'0 0.0
2016-Jul-23 15:32N 36°08' W 005°26'0 0.0
2016-Jul-23 14:32N 36°08' W 005°26'0 0.0
2016-Jul-23 13:13N 36°08' W 005°26'1 1.3
2016-Jul-23 12:27N 36°09' W 005°26'1 0.1
2016-Jul-23 02:18N 36°08' W 005°26'0 0.0
2016-Jul-23 01:31N 36°08' W 005°26'0 0.0
2016-Jul-23 00:33N 36°08' W 005°26'0 0.0
2016-Jul-22 22:14N 36°08' W 005°26'0 0.0
2016-Jul-22 21:29N 36°08' W 005°26'0 0.0
2016-Jul-22 20:33N 36°08' W 005°26'0 0.0
2016-Jul-22 19:33N 36°08' W 005°26'1 0.4
2016-Jul-22 17:31N 36°07' W 005°25'0 0.5
2016-Jul-22 16:33N 36°08' W 005°25'0 0.0
2016-Jul-22 14:15N 36°08' W 005°25'0 0.0
2016-Jul-22 12:33N 36°08' W 005°25'1 1.0
2016-Jul-22 11:28N 36°08' W 005°24'2 1.9
2016-Jul-22 10:33N 36°09' W 005°26'1 0.3
2016-Jul-22 08:20N 36°08' W 005°26'0 0.1
2016-Jul-22 04:33N 36°08' W 005°25'0 0.0
2016-Jul-21 17:31N 36°08' W 005°26'0 0.0
2016-Jul-21 16:33N 36°08' W 005°26'0 0.0
2016-Jul-21 15:33N 36°08' W 005°26'0 0.0
2016-Jul-21 14:31N 36°08' W 005°26'0 0.0
2016-Jul-21 13:26N 36°08' W 005°26'2 1.2
2016-Jul-21 11:33N 36°10' W 005°25'2 2.2
2016-Jul-21 10:33N 36°08' W 005°26'1 0.4
2016-Jul-21 08:33N 36°07' W 005°25'1 0.9
2016-Jul-21 07:32N 36°07' W 005°24'1 0.7
2016-Jul-21 05:29N 36°08' W 005°25'1 0.8
2016-Jul-21 04:29N 36°08' W 005°24'1 0.3
2016-Jul-21 01:04N 36°08' W 005°26'0 0.0
2016-Jul-21 00:32N 36°08' W 005°26'0 0.0
2016-Jul-20 23:31N 36°08' W 005°26'0 0.0
2016-Jul-20 22:30N 36°08' W 005°26'0 0.0
2016-Jul-20 21:26N 36°08' W 005°26'0 0.4
2016-Jul-20 20:33N 36°08' W 005°25'0 0.1
2016-Jul-20 17:28N 36°08' W 005°26'0 0.0
2016-Jul-20 16:22N 36°08' W 005°26'0 0.0
2016-Jul-20 15:32N 36°08' W 005°26'0 0.0
2016-Jul-20 14:29N 36°08' W 005°26'0 0.0
2016-Jul-20 13:18N 36°08' W 005°26'0 0.0
2016-Jul-20 12:28N 36°08' W 005°26'0 0.0
2016-Jul-20 09:08N 36°08' W 005°26'0 0.0
2016-Jul-20 08:18N 36°08' W 005°26'0 0.0
2016-Jul-20 07:29N 36°08' W 005°26'0 0.0
2016-Jul-20 05:31N 36°08' W 005°26'1 0.7
2016-Jul-20 04:33N 36°08' W 005°25'1 0.6
2016-Jul-20 03:33N 36°08' W 005°26'0 0.0
2016-Jul-20 02:30N 36°08' W 005°26'0 0.0
2016-Jul-20 01:21N 36°08' W 005°26'0 0.0
2016-Jul-19 16:10N 36°08' W 005°26'  
Track history (hours):
 
Tides and Currents Weather Stations Pressure Air Temp Water Temp Dewpoint Dewpoint Depression Visibility Wind Speed Wind Dir Waves Ship Positions

Vb Andalucia

Last reported at 2016-Jul-29 15:32 UTC. Time now 2016-Jul-29 15:59 UTC.
Position N 36°09' W 005°25'.

Type: Tug. MMSI: 224117450.

Date/timePositionNaut miles runAvg speedWind from/ knotsBaromVisibWave heightAir tempDewpointWater temp
2016-Jul-29 15:32N 36°09' W 005°25'1 1.2
2016-Jul-29 14:29N 36°08' W 005°26'0 0.0
2016-Jul-29 13:15N 36°08' W 005°26'0 0.0
2016-Jul-29 12:25N 36°08' W 005°26'1 1.0
2016-Jul-29 11:28N 36°08' W 005°25'1 0.6
2016-Jul-29 10:32N 36°08' W 005°26'1 0.5
2016-Jul-29 09:14N 36°08' W 005°25'1 0.3
2016-Jul-29 05:33N 36°08' W 005°26'0 0.0
2016-Jul-29 04:29N 36°08' W 005°26'0 0.0
2016-Jul-29 03:33N 36°08' W 005°26'0 0.0
2016-Jul-29 02:33N 36°08' W 005°26'0 0.0
2016-Jul-29 01:33N 36°08' W 005°26'2 1.8
2016-Jul-29 00:30N 36°09' W 005°24'2 1.9
2016-Jul-28 23:32N 36°08' W 005°26'0 0.0
2016-Jul-28 22:33N 36°08' W 005°26'0 0.3
2016-Jul-28 21:31N 36°08' W 005°26'0 0.3
2016-Jul-28 20:25N 36°08' W 005°26'0 0.0
2016-Jul-28 19:33N 36°08' W 005°26'0 0.1
2016-Jul-28 17:31N 36°08' W 005°26'0 0.0
2016-Jul-28 10:07N 36°08' W 005°26'0 0.1
2016-Jul-28 05:25N 36°08' W 005°26'1 0.6
2016-Jul-28 04:33N 36°08' W 005°26'1 0.5
2016-Jul-28 03:29N 36°08' W 005°26'1 1.2
2016-Jul-28 02:33N 36°09' W 005°25'1 1.1
2016-Jul-28 01:33N 36°08' W 005°26'0 0.0
2016-Jul-28 00:33N 36°08' W 005°26'0 0.0
2016-Jul-27 23:32N 36°08' W 005°26'0 0.0
2016-Jul-27 22:33N 36°08' W 005°26'0 0.0
2016-Jul-27 20:16N 36°08' W 005°26'0 0.0
2016-Jul-27 19:33N 36°08' W 005°26'1 1.0
2016-Jul-27 18:34N 36°09' W 005°26'1 1.0
2016-Jul-27 17:33N 36°08' W 005°26'0 0.0
2016-Jul-27 16:34N 36°08' W 005°26'0 0.0
2016-Jul-27 15:20N 36°08' W 005°26'0 0.0
2016-Jul-27 14:14N 36°08' W 005°26'0 0.0
2016-Jul-27 13:27N 36°08' W 005°26'0 0.0
2016-Jul-27 12:33N 36°08' W 005°26'0 0.1
2016-Jul-27 11:23N 36°08' W 005°26'2 2.1
2016-Jul-27 10:33N 36°09' W 005°25'1 1.1
2016-Jul-27 09:33N 36°08' W 005°25'1 0.6
2016-Jul-27 07:33N 36°09' W 005°26'1 0.6
2016-Jul-27 06:29N 36°08' W 005°26'0 0.0
2016-Jul-27 05:33N 36°08' W 005°26'0 0.0
2016-Jul-27 04:33N 36°08' W 005°26'0 0.0
2016-Jul-27 03:32N 36°08' W 005°26'0 0.0
2016-Jul-27 02:33N 36°08' W 005°26'0 0.0
2016-Jul-27 01:33N 36°08' W 005°26'0 0.0
2016-Jul-27 00:30N 36°08' W 005°26'0 0.0
2016-Jul-26 23:33N 36°08' W 005°26'0 0.4
2016-Jul-26 22:33N 36°08' W 005°26'0 0.3
2016-Jul-26 21:03N 36°08' W 005°26'0 0.0
2016-Jul-26 20:33N 36°08' W 005°26'0 0.0
2016-Jul-26 19:27N 36°08' W 005°26'0 0.0
2016-Jul-26 18:32N 36°08' W 005°26'1 0.1
2016-Jul-26 11:33N 36°08' W 005°25'1 0.2
2016-Jul-26 05:33N 36°08' W 005°26'1 0.5
2016-Jul-26 04:33N 36°08' W 005°26'0 0.0
2016-Jul-26 03:33N 36°08' W 005°26'0 0.0
2016-Jul-26 02:33N 36°08' W 005°26'0 0.0
2016-Jul-26 00:26N 36°08' W 005°26'1 1.2
2016-Jul-25 23:33N 36°09' W 005°26'1 0.1
2016-Jul-25 18:31N 36°08' W 005°26'1 0.7
2016-Jul-25 17:29N 36°09' W 005°26'0 0.2
2016-Jul-25 15:09N 36°09' W 005°26'1 0.5
2016-Jul-25 13:31N 36°08' W 005°26'0 0.2
2016-Jul-25 12:29N 36°08' W 005°26'0 0.2
2016-Jul-25 11:33N 36°08' W 005°26'0 0.2
2016-Jul-25 10:30N 36°08' W 005°26'0 0.1
2016-Jul-25 07:29N 36°08' W 005°26'0 0.1
2016-Jul-25 06:04N 36°08' W 005°26'0 0.0
2016-Jul-25 04:32N 36°08' W 005°26'0 0.0
2016-Jul-25 03:33N 36°08' W 005°26'0 0.0
2016-Jul-25 02:33N 36°08' W 005°26'1 1.0
2016-Jul-25 01:33N 36°09' W 005°26'1 0.9
2016-Jul-25 00:33N 36°08' W 005°26'3 2.6
2016-Jul-24 23:33N 36°11' W 005°25'3 2.6
2016-Jul-24 22:33N 36°08' W 005°26'0 0.2
2016-Jul-24 21:33N 36°08' W 005°26'0 0.0
2016-Jul-24 20:18N 36°08' W 005°26'0 0.0
2016-Jul-24 19:33N 36°08' W 005°26'0 0.0
2016-Jul-24 18:33N 36°08' W 005°26'0 0.0
2016-Jul-24 17:33N 36°08' W 005°26'2 1.6
2016-Jul-24 16:27N 36°09' W 005°24'2 0.9
2016-Jul-24 14:30N 36°08' W 005°26'0 0.0
2016-Jul-24 13:33N 36°08' W 005°26'0 0.0
2016-Jul-24 12:32N 36°08' W 005°26'0 0.0
2016-Jul-24 08:25N 36°08' W 005°26'1 1.1
2016-Jul-24 07:33N 36°09' W 005°26'0 0.2
2016-Jul-24 06:33N 36°09' W 005°26'0 0.4
2016-Jul-24 05:33N 36°08' W 005°26'0 0.1
2016-Jul-24 04:33N 36°08' W 005°26'0 0.4
2016-Jul-24 03:18N 36°08' W 005°26'0 0.0
2016-Jul-24 02:25N 36°08' W 005°26'0 0.0
2016-Jul-24 01:33N 36°08' W 005°26'0 0.0
2016-Jul-23 23:26N 36°08' W 005°26'0 0.0
2016-Jul-23 22:33N 36°08' W 005°26'1 1.4
2016-Jul-23 21:33N 36°09' W 005°25'1 0.2
2016-Jul-23 16:08N 36°08' W 005°26'0 0.0
2016-Jul-23 15:32N 36°08' W 005°26'0 0.0
2016-Jul-23 14:32N 36°08' W 005°26'0 0.0
2016-Jul-23 13:13N 36°08' W 005°26'1 1.3
2016-Jul-23 12:27N 36°09' W 005°26'1 0.1
2016-Jul-23 02:18N 36°08' W 005°26'0 0.0
2016-Jul-23 01:31N 36°08' W 005°26'0 0.0
2016-Jul-23 00:33N 36°08' W 005°26'0 0.0
2016-Jul-22 22:14N 36°08' W 005°26'0 0.0
2016-Jul-22 21:29N 36°08' W 005°26'0 0.0
2016-Jul-22 20:33N 36°08' W 005°26'0 0.0
2016-Jul-22 19:33N 36°08' W 005°26'1 0.4
2016-Jul-22 17:31N 36°07' W 005°25'0 0.5
2016-Jul-22 16:33N 36°08' W 005°25'0 0.0
2016-Jul-22 14:15N 36°08' W 005°25'0 0.0
2016-Jul-22 12:33N 36°08' W 005°25'1 1.0
2016-Jul-22 11:28N 36°08' W 005°24'2 1.9
2016-Jul-22 10:33N 36°09' W 005°26'1 0.3
2016-Jul-22 08:20N 36°08' W 005°26'0 0.1
2016-Jul-22 04:33N 36°08' W 005°25'0 0.0
2016-Jul-21 17:31N 36°08' W 005°26'0 0.0
2016-Jul-21 16:33N 36°08' W 005°26'0 0.0
2016-Jul-21 15:33N 36°08' W 005°26'0 0.0
2016-Jul-21 14:31N 36°08' W 005°26'0 0.0
2016-Jul-21 13:26N 36°08' W 005°26'2 1.2
2016-Jul-21 11:33N 36°10' W 005°25'2 2.2
2016-Jul-21 10:33N 36°08' W 005°26'1 0.4
2016-Jul-21 08:33N 36°07' W 005°25'1 0.9
2016-Jul-21 07:32N 36°07' W 005°24'1 0.7
2016-Jul-21 05:29N 36°08' W 005°25'1 0.8
2016-Jul-21 04:29N 36°08' W 005°24'1 0.3
2016-Jul-21 01:04N 36°08' W 005°26'0 0.0
2016-Jul-21 00:32N 36°08' W 005°26'0 0.0
2016-Jul-20 23:31N 36°08' W 005°26'0 0.0
2016-Jul-20 22:30N 36°08' W 005°26'0 0.0
2016-Jul-20 21:26N 36°08' W 005°26'0 0.4
2016-Jul-20 20:33N 36°08' W 005°25'0 0.1
2016-Jul-20 17:28N 36°08' W 005°26'0 0.0
2016-Jul-20 16:22N 36°08' W 005°26'0 0.0
2016-Jul-20 15:32N 36°08' W 005°26'0 0.0
2016-Jul-20 14:29N 36°08' W 005°26'0 0.0
2016-Jul-20 13:18N 36°08' W 005°26'0 0.0
2016-Jul-20 12:28N 36°08' W 005°26'0 0.0
2016-Jul-20 09:08N 36°08' W 005°26'0 0.0
2016-Jul-20 08:18N 36°08' W 005°26'0 0.0
2016-Jul-20 07:29N 36°08' W 005°26'0 0.0
2016-Jul-20 05:31N 36°08' W 005°26'1 0.7
2016-Jul-20 04:33N 36°08' W 005°25'1 0.6
2016-Jul-20 03:33N 36°08' W 005°26'0 0.0
2016-Jul-20 02:30N 36°08' W 005°26'0 0.0
2016-Jul-20 01:21N 36°08' W 005°26'0 0.0
2016-Jul-19 16:10N 36°08' W 005°26'  

Dump ship's entire track history